Share

Zadar, Croatia

2:32 PM CEST on April 23, 2014 (GMT +0200)
Zemunik (LDZD) Elev 269 ft | 44.10 °N, 15.36 °E | Change Station

Current weather conditions updated 2 minutes ago

Light Rain
Light Rain
63 °F
Feels Like 63 °F
N
6
Wind Variable Wind from WSW
Sunrise 6:02 AM
Sunset 7:52 PM
Moon Last Quarter

Today is forecast to be Cooler than yesterday. Rain.

Pressure 29.95 in
Visibility 6.2 miles
Clouds Scattered Clouds 3500 ft
Dew Point 57 °F
Humidity 82%
Rainfall 0.00 in
Snow Depth Not available.
UV 6 out of 16
Pollen Not available.
Air Quality Not available.
Flu Activity Not available.
METAR LDZD 231230Z 25005KT 200V290 9999 -RA SCT035 17/14 Q1014 NOSIG

More Conditions Fewer Conditions

Pressure 29.95 in
Visibility 6.2 miles
Clouds Scattered Clouds 3500 ft
Dew Point 57 °F
Humidity 82%
Rainfall 0.00 in
Snow Depth Not available.
UV 6 out of 16
Pollen Not available.
Air Quality Not available.
Flu Activity Not available.
METAR LDZD 231230Z 25005KT 200V290 9999 -RA SCT035 17/14 Q1014 NOSIG

More Conditions Fewer Conditions

10-Day Weather Forecast

Almanac

Astronomy

Apr. 23, 2014 Rise Set
Actual Time 6:02 AM CEST 7:52 PM CEST
Civil Twilight 5:31 AM CEST 8:23 PM CEST
Nautical Twilight 4:54 AM CEST 9:00 PM CEST
Astronomical Twilight 4:13 AM CEST 9:41 PM CEST
Moon 2:35 AM CEST 1:27 PM CEST
Length of Visible Light 14h 51m
Length of Day
13h 49m
Tomorrow will be 2m 47s longer.
Last Quarter, 36% of the Moon is Illuminated
Today
Last Quarter
Apr 29
New
May 6
First Quarter
May 14
Full
May 21
Last Quarter

Yesterday's Extremes

Country Highs Country Lows

Community

  • April Sunset
    April Sunset
  • Waiting..
    Waiting..
  • Sunset...
    Sunset...
  • Happy outdoor day
    Happy outdoor day
  • mystic afternoon....
    mystic afternoon....

WunderPhotos

Upload Photos

1,704,257 photos uploaded!

Nearby

Snow Depth

Not available.

Coastal Water Temperatures

Place Temperature
No Stations Reporting

Earthquake Activity

City Distance Mag. Time & Date
No recent earthquake activity has been reported nearby.
Minimum magnitude displayed is 2.5.

Nearby Weather Stations

Station Location Temp. Dew Point Humidity Wind Precip. Elev Updated Type
Poluotok, Zadar 63.1 °F 57 °F 81% North  at  0.0 mph 0.00 in / hr 0 ft 2:30 PM CEST Normal
Starigrad Paklenica 63.4 °F 60 °F 87% ENE  at  2.0 mph 0.00 in / hr 5 ft 2:32 PM CEST Normal
Savar, Dugi otok, Croatia, Savar 65.8 °F 58 °F 75% North  at  0.0 mph 0.00 in / hr 43 ft 2:30 PM CEST Normal
Pirovac, Pirovac 62.1 °F 58 °F 88% NNW  at  0.0 mph 0.00 in / hr 49 ft 2:32 PM CEST Rapid Fire

Show More Stations Show Fewer Stations

What do you think?

We're not finished. Please let us know what you like, what you don't like, and what you are still missing.